Time;durP1;ratioP1;P1;durP2;ratioP2;P2;SDS_P1;SDS_P2;PMS_P1;PMS_P2;Temp;Humidity;BMP_temperature;BMP_pressure;BME280_temperature;BME280_humidity;BME280_pressure;Samples;Min_cycle;Max_cycle;Signal;HPM_P1;HPM_P2
2023/02/19 00:01:05;;;;;;;21.85;16.17;;;;;;;8.91;84.89;100700.50;5025752;28;20420;-71
2023/02/19 00:03:30;;;;;;;23.15;15.88;;;;;;;8.85;85.60;100695.94;5029950;28;20021;-69
2023/02/19 00:05:56;;;;;;;23.52;15.52;;;;;;;8.85;85.81;100700.22;5030408;28;20029;-69
2023/02/19 00:08:21;;;;;;;20.00;14.50;;;;;;;8.80;86.06;100686.22;5030067;28;20018;-70
2023/02/19 00:10:47;;;;;;;20.25;15.13;;;;;;;8.89;85.49;100691.81;5030253;28;20026;-70
2023/02/19 00:13:13;;;;;;;20.95;15.85;;;;;;;8.87;85.38;100686.59;5029896;28;20033;-69
2023/02/19 00:15:39;;;;;;;22.75;15.13;;;;;;;8.76;85.41;100671.44;5030236;28;20072;-68
2023/02/19 00:18:04;;;;;;;21.52;14.73;;;;;;;8.84;85.44;100683.88;5029625;28;20055;-73
2023/02/19 00:20:29;;;;;;;22.05;14.63;;;;;;;8.34;85.55;100608.56;5029980;28;20145;-69
2023/02/19 00:22:55;;;;;;;22.23;14.73;;;;;;;8.81;85.92;100682.84;5029979;28;20126;-72
2023/02/19 00:25:20;;;;;;;22.65;14.98;;;;;;;8.77;86.14;100683.50;5029600;28;20547;-70
2023/02/19 00:27:46;;;;;;;23.30;15.77;;;;;;;8.49;86.21;100633.31;5029419;28;20029;-71
2023/02/19 00:30:11;;;;;;;21.40;15.18;;;;;;;8.65;86.69;100661.53;5029565;28;20026;-72
2023/02/19 00:32:37;;;;;;;21.48;14.77;;;;;;;8.33;87.04;100632.50;5029363;28;20021;-73
2023/02/19 00:35:03;;;;;;;20.20;14.43;;;;;;;8.54;87.70;100667.84;5029095;28;20025;-72
2023/02/19 00:37:28;;;;;;;22.98;15.70;;;;;;;8.43;88.47;100664.72;5029594;28;20026;-71
2023/02/19 00:39:54;;;;;;;21.40;14.95;;;;;;;8.31;89.37;100651.25;5029399;28;20022;-72
2023/02/19 00:42:19;;;;;;;20.70;15.32;;;;;;;8.32;89.85;100658.16;5029040;28;20032;-72
2023/02/19 00:44:44;;;;;;;22.35;15.20;;;;;;;8.31;89.91;100648.69;5029303;28;20053;-71
2023/02/19 00:47:10;;;;;;;20.00;14.63;;;;;;;8.21;90.07;100643.09;5010669;28;20573;-69
2023/02/19 00:49:35;;;;;;;21.35;14.27;;;;;;;8.30;90.35;100645.25;5029222;28;20100;-71
2023/02/19 00:52:01;;;;;;;19.92;14.50;;;;;;;8.30;90.28;100640.09;5028949;28;20036;-71
2023/02/19 00:54:26;;;;;;;22.40;14.57;;;;;;;8.25;90.35;100631.28;5029211;28;20041;-70
2023/02/19 00:56:52;;;;;;;20.65;14.55;;;;;;;8.23;90.92;100631.19;5028433;28;20491;-71
2023/02/19 00:59:17;;;;;;;23.58;15.95;;;;;;;8.21;91.34;100624.19;5027660;28;20152;-70
2023/02/19 01:01:43;;;;;;;23.13;15.00;;;;;;;7.85;92.46;100581.34;5028844;28;20112;-71
2023/02/19 01:04:09;;;;;;;20.58;14.80;;;;;;;7.95;93.51;100616.09;5027313;28;20068;-73
2023/02/19 01:06:35;;;;;;;24.98;15.18;;;;;;;7.99;93.76;100617.09;5028587;28;20060;-70
2023/02/19 01:09:01;;;;;;;21.80;15.13;;;;;;;7.99;93.96;100607.72;5028954;28;20025;-69
2023/02/19 01:11:27;;;;;;;25.35;14.70;;;;;;;7.83;93.92;100577.78;5027506;28;20052;-73
2023/02/19 01:13:56;;;;;;;19.42;14.02;;;;;;;8.13;93.57;100604.97;5028924;28;20050;-72
2023/02/19 01:16:23;;;;;;;20.38;13.70;;;;;;;8.17;93.46;100607.72;5024664;28;20033;-69
2023/02/19 01:18:50;;;;;;;22.08;13.98;;;;;;;8.17;93.27;100601.72;5029259;28;20044;-69
2023/02/19 01:21:20;;;;;;;23.88;15.05;;;;;;;8.24;92.75;100596.94;5029098;28;20067;-72
2023/02/19 01:23:46;;;;;;;21.00;14.07;;;;;;;8.21;92.81;100590.75;5011375;28;20034;-72
2023/02/19 01:26:24;;;;;;;22.92;15.38;;;;;;;8.17;93.09;100594.00;5028744;28;20040;-69
2023/02/19 01:28:50;;;;;;;21.73;15.35;;;;;;;8.20;92.59;100594.13;5027546;28;20409;-72
2023/02/19 01:31:21;;;;;;;20.02;14.30;;;;;;;8.23;92.45;100600.31;5011557;28;20026;-72
2023/02/19 01:33:51;;;;;;;24.58;15.02;;;;;;;8.28;92.40;100604.81;5029114;28;20025;-71
2023/02/19 01:36:17;;;;;;;22.38;15.20;;;;;;;8.29;92.03;100606.56;5028784;28;20014;-71
2023/02/19 01:38:43;;;;;;;20.60;14.52;;;;;;;8.22;92.18;100608.88;5028736;28;20484;-69
2023/02/19 01:41:12;;;;;;;22.17;14.95;;;;;;;8.21;92.40;100612.25;5028843;28;20025;-69
2023/02/19 01:44:15;;;;;;;19.00;13.27;;;;;;;8.16;92.59;100608.56;5028738;28;20101;-69
2023/02/19 01:46:42;;;;;;;20.52;13.20;;;;;;;8.12;92.59;100588.63;5032461;28;20041;-69
2023/02/19 01:49:17;;;;;;;19.70;13.05;;;;;;;8.26;91.93;100605.63;5032657;28;20037;-71
2023/02/19 01:51:51;;;;;;;19.48;13.82;;;;;;;8.26;91.92;100595.34;5032743;28;20049;-70
2023/02/19 01:54:21;;;;;;;20.30;14.15;;;;;;;8.22;91.64;100590.84;5032747;28;20029;-70
2023/02/19 01:56:47;;;;;;;18.48;13.15;;;;;;;8.30;91.68;100598.94;5032441;28;20543;-71
2023/02/19 01:59:14;;;;;;;19.13;13.65;;;;;;;8.20;91.78;100582.19;5032410;28;20030;-69
2023/02/19 02:01:40;;;;;;;20.52;13.80;;;;;;;7.88;91.57;100511.19;5032599;28;20080;-68
2023/02/19 02:04:07;;;;;;;20.30;13.82;;;;;;;8.12;91.93;100555.19;5032802;28;20499;-71
2023/02/19 02:06:42;;;;;;;20.52;14.02;;;;;;;8.18;92.29;100573.50;5032780;28;20090;-72
2023/02/19 02:11:52;;;;;;;22.13;14.05;;;;;;;8.23;93.18;100594.31;5032454;28;20036;-68
2023/02/19 02:14:21;;;;;;;23.17;13.82;;;;;;;8.14;93.79;100599.88;5032713;28;20049;-72
2023/02/19 02:17:01;;;;;;;23.77;15.52;;;;;;;8.07;94.65;100587.53;5032469;28;20041;-71
2023/02/19 02:19:42;;;;;;;20.60;14.45;;;;;;;7.98;95.96;100580.25;5032875;28;20022;-68
2023/02/19 02:22:19;;;;;;;21.20;14.63;;;;;;;8.03;96.13;100581.34;5031623;28;20103;-71
2023/02/19 02:25:18;;;;;;;21.30;14.52;;;;;;;8.08;96.60;100574.72;5032566;28;20021;-71
2023/02/19 02:27:55;;;;;;;22.27;14.88;;;;;;;8.11;97.03;100574.00;5023686;28;20033;-71
2023/02/19 02:30:33;;;;;;;20.80;13.75;;;;;;;8.14;97.24;100571.59;5032103;28;20021;-71
2023/02/19 02:33:22;;;;;;;19.95;14.18;;;;;;;8.20;97.21;100566.75;5032224;28;20411;-71
2023/02/19 02:35:56;;;;;;;20.17;13.52;;;;;;;8.20;97.68;100571.00;5032845;28;20040;-72
2023/02/19 02:38:37;;;;;;;20.90;14.43;;;;;;;8.27;98.37;100567.91;5032136;28;20499;-71
2023/02/19 02:41:04;;;;;;;19.45;13.45;;;;;;;8.02;98.75;100522.16;5031944;28;20026;-71
2023/02/19 02:43:29;;;;;;;21.90;14.70;;;;;;;8.35;98.93;100575.97;5032183;28;20025;-71
2023/02/19 02:45:55;;;;;;;21.73;14.90;;;;;;;8.29;99.67;100578.25;5031978;28;20476;-71
2023/02/19 02:48:30;;;;;;;23.00;15.98;;;;;;;8.17;100.00;100558.88;5032346;28;20021;-71
2023/02/19 02:51:14;;;;;;;23.58;16.10;;;;;;;8.12;100.00;100550.06;5031801;28;20036;-71
2023/02/19 02:56:44;;;;;;;21.65;15.48;;;;;;;8.08;100.00;100535.28;5031402;28;20622;-72
2023/02/19 02:59:13;;;;;;;23.73;16.20;;;;;;;8.29;100.00;100576.59;5031302;28;20041;-74
2023/02/19 03:05:50;;;;;;;22.63;15.80;;;;;;;8.24;100.00;100578.06;5032164;28;20171;-71
2023/02/19 03:19:55;;;;;;;25.20;16.10;;;;;;;8.31;100.00;100610.09;5049849;28;20126;-71
2023/02/19 03:22:30;;;;;;;20.67;15.38;;;;;;;8.40;100.00;100633.72;5051497;28;20036;-72
2023/02/19 03:27:48;;;;;;;22.00;15.25;;;;;;;8.41;100.00;100630.31;5038322;28;20044;-73
2023/02/19 03:30:18;;;;;;;24.00;15.85;;;;;;;8.51;100.00;100637.72;5039079;28;20416;-71
2023/02/19 03:35:33;;;;;;;24.25;16.20;;;;;;;8.40;100.00;100623.41;5132910;23;20060;-69
2023/02/19 03:38:12;;;;;;;21.67;16.33;;;;;;;8.45;100.00;100634.81;5051461;28;20487;-69
2023/02/19 03:40:53;;;;;;;21.13;15.95;;;;;;;8.52;100.00;100661.75;5049344;28;20514;-72
2023/02/19 03:43:39;;;;;;;21.60;16.15;;;;;;;8.53;100.00;100664.38;5040562;28;20036;-71
2023/02/19 03:46:10;;;;;;;21.92;15.88;;;;;;;8.49;100.00;100657.31;5051045;28;20456;-72
2023/02/19 03:48:47;;;;;;;24.80;16.02;;;;;;;8.58;100.00;100669.75;5050763;28;20033;-69
2023/02/19 03:51:15;;;;;;;23.02;16.80;;;;;;;8.56;100.00;100668.78;5051170;28;20033;-73
2023/02/19 03:53:59;;;;;;;22.42;16.02;;;;;;;8.61;100.00;100669.03;5050800;28;20086;-70
2023/02/19 03:56:32;;;;;;;23.48;17.23;;;;;;;8.63;99.73;100655.41;5050896;28;20024;-70
2023/02/19 03:59:21;;;;;;;22.60;17.17;;;;;;;8.42;99.21;100619.22;5050456;28;20460;-68
2023/02/19 04:01:52;;;;;;;21.50;16.30;;;;;;;8.70;98.22;100654.03;5051063;28;20530;-69
2023/02/19 04:04:29;;;;;;;22.08;16.08;;;;;;;8.64;97.79;100646.03;5050628;28;20502;-68
2023/02/19 04:06:56;;;;;;;20.30;15.60;;;;;;;8.74;96.70;100654.22;5050491;28;20115;-73
2023/02/19 04:09:46;;;;;;;23.40;17.05;;;;;;;8.74;97.30;100656.81;5049957;28;20418;-69
2023/02/19 04:12:13;;;;;;;24.52;16.40;;;;;;;8.70;97.49;100672.06;4969214;28;20496;-71
2023/02/19 04:15:01;;;;;;;22.63;16.33;;;;;;;8.68;96.52;100671.09;4968939;28;20051;-71
2023/02/19 04:17:33;;;;;;;21.40;16.20;;;;;;;8.66;96.13;100680.41;4969225;28;20101;-72
2023/02/19 04:20:03;;;;;;;25.92;18.38;;;;;;;8.39;97.44;100681.69;4969188;28;20039;-69
2023/02/19 04:22:29;;;;;;;37.10;22.95;;;;;;;8.22;98.46;100685.13;4969144;28;20027;-70
2023/02/19 04:24:55;;;;;;;33.03;22.05;;;;;;;8.03;98.12;100657.63;4952897;28;20078;-74
2023/02/19 04:27:21;;;;;;;32.25;20.65;;;;;;;8.29;97.54;100700.06;4966029;28;20198;-72
2023/02/19 04:29:46;;;;;;;35.15;21.20;;;;;;;8.24;96.77;100704.97;4965855;28;20069;-69
2023/02/19 04:32:12;;;;;;;31.92;19.77;;;;;;;7.90;97.17;100663.81;4969357;28;20023;-71
2023/02/19 04:34:38;;;;;;;27.90;19.42;;;;;;;7.98;98.23;100702.78;4969140;28;20098;-69
2023/02/19 04:37:04;;;;;;;27.10;17.98;;;;;;;7.86;99.79;100693.63;4966108;28;20086;-70
2023/02/19 04:39:29;;;;;;;25.52;18.23;;;;;;;7.85;99.96;100701.25;4968260;28;20415;-72
2023/02/19 04:41:55;;;;;;;26.17;18.17;;;;;;;7.84;98.57;100700.38;4968228;28;20102;-71
2023/02/19 04:44:20;;;;;;;23.60;17.40;;;;;;;7.79;99.15;100701.81;4969027;28;20031;-71
2023/02/19 04:46:46;;;;;;;26.23;16.95;;;;;;;7.79;98.08;100699.25;4969257;28;20512;-73
2023/02/19 04:49:11;;;;;;;25.40;16.80;;;;;;;7.36;97.41;100668.72;5009586;28;20119;-73
2023/02/19 04:51:38;;;;;;;23.02;16.17;;;;;;;7.36;96.33;100692.72;5054306;28;20068;-70
2023/02/19 04:54:04;;;;;;;23.50;16.75;;;;;;;7.25;95.82;100707.56;5056623;28;20501;-71
2023/02/19 04:56:29;;;;;;;25.48;17.23;;;;;;;7.19;96.05;100720.09;5049738;28;20032;-68
2023/02/19 04:58:55;;;;;;;24.15;16.38;;;;;;;7.01;97.18;100706.22;5037704;28;20032;-69
2023/02/19 05:01:20;;;;;;;25.83;17.77;;;;;;;6.86;99.32;100713.97;5047282;28;20040;-69
2023/02/19 05:03:46;;;;;;;27.27;18.75;;;;;;;6.76;100.00;100718.56;5043941;28;20087;-72
2023/02/19 05:06:12;;;;;;;29.38;17.48;;;;;;;6.56;100.00;100681.53;5046547;28;20021;-71
2023/02/19 05:08:38;;;;;;;24.08;16.52;;;;;;;6.59;100.00;100702.25;5046657;28;20036;-71
2023/02/19 05:11:05;;;;;;;23.80;17.02;;;;;;;6.67;100.00;100719.72;5049329;28;20036;-71
2023/02/19 05:13:31;;;;;;;27.95;17.92;;;;;;;6.59;100.00;100715.06;5049977;28;20032;-70
2023/02/19 05:16:02;;;;;;;25.75;17.88;;;;;;;6.60;100.00;100728.75;5049331;28;20040;-69
2023/02/19 05:18:29;;;;;;;30.88;20.23;;;;;;;6.50;100.00;100721.34;5014298;28;20036;-70
2023/02/19 05:20:56;;;;;;;31.50;20.25;;;;;;;6.38;100.00;100714.72;5052631;28;20029;-71
2023/02/19 05:23:42;;;;;;;27.17;16.02;;;;;;;6.03;100.00;100705.88;5003555;28;20046;-70
2023/02/19 05:26:17;;;;;;;27.30;17.50;;;;;;;5.84;100.00;100719.22;5007941;28;20563;-68
2023/02/19 05:28:47;;;;;;;26.35;17.42;;;;;;;5.88;100.00;100731.44;5011044;28;20549;-70
2023/02/19 05:31:13;;;;;;;29.25;17.70;;;;;;;5.95;100.00;100725.84;4995743;28;20022;-71
2023/02/19 05:33:40;;;;;;;28.25;20.45;;;;;;;5.98;100.00;100704.66;5010010;28;20524;-68
2023/02/19 05:36:11;;;;;;;28.20;18.67;;;;;;;6.21;100.00;100728.25;4999725;28;20069;-70
2023/02/19 05:38:36;;;;;;;30.23;20.02;;;;;;;6.32;100.00;100745.13;4997262;28;20452;-71
2023/02/19 05:41:16;;;;;;;29.05;19.13;;;;;;;6.37;100.00;100745.38;5012023;28;20034;-70
2023/02/19 05:43:43;;;;;;;;;;;;;;;6.45;100.00;100759.56;5010297;28;20164;-70
2023/02/19 05:46:09;;;;;;;26.25;18.05;;;;;;;6.43;100.00;100756.00;5011735;28;19944;-74
2023/02/19 05:48:35;;;;;;;27.88;18.55;;;;;;;6.44;100.00;100758.69;5011581;28;20065;-68
2023/02/19 05:51:06;;;;;;;30.10;19.65;;;;;;;6.20;100.00;100722.22;5011790;28;20033;-71
2023/02/19 05:53:32;;;;;;;27.25;18.60;;;;;;;6.13;100.00;100715.84;5012073;28;20142;-71
2023/02/19 05:55:57;;;;;;;28.83;18.45;;;;;;;6.45;100.00;100772.38;5053803;28;20024;-73
2023/02/19 05:58:23;;;;;;;28.85;17.90;;;;;;;6.40;100.00;100760.97;5053963;28;20031;-68
2023/02/19 06:00:49;;;;;;;26.13;18.00;;;;;;;6.52;100.00;100746.28;5042244;28;20033;-70
2023/02/19 06:03:14;;;;;;;29.08;18.92;;;;;;;6.58;100.00;100750.88;5010831;28;20480;-68
2023/02/19 06:05:39;;;;;;;26.90;17.83;;;;;;;6.64;100.00;100754.69;5011070;28;20034;-71
2023/02/19 06:08:05;;;;;;;28.05;19.20;;;;;;;6.72;100.00;100755.13;5011000;28;20487;-70
2023/02/19 06:10:30;;;;;;;27.85;19.50;;;;;;;6.76;100.00;100766.44;5025309;28;20041;-70
2023/02/19 06:12:56;;;;;;;27.10;18.77;;;;;;;6.86;100.00;100762.72;5030491;28;20037;-71
2023/02/19 06:15:21;;;;;;;28.20;18.77;;;;;;;6.88;100.00;100774.84;5030877;28;20090;-73
2023/02/19 06:17:47;;;;;;;27.88;18.23;;;;;;;6.87;100.00;100770.50;5030575;28;20043;-69
2023/02/19 06:20:13;;;;;;;26.65;17.60;;;;;;;6.89;100.00;100770.59;5030831;28;20504;-71
2023/02/19 06:22:38;;;;;;;28.08;18.92;;;;;;;6.93;100.00;100769.97;5027241;28;20045;-70
2023/02/19 06:25:06;;;;;;;26.48;19.13;;;;;;;6.99;100.00;100779.69;5019080;28;20479;-69
2023/02/19 06:27:32;;;;;;;33.05;21.83;;;;;;;7.05;100.00;100791.22;5017906;28;20021;-70
2023/02/19 06:29:57;;;;;;;28.48;20.23;;;;;;;7.10;100.00;100789.78;5029058;28;20550;-72
2023/02/19 06:32:23;;;;;;;28.15;19.15;;;;;;;7.19;100.00;100780.81;5028043;28;20045;-72
2023/02/19 06:34:49;;;;;;;27.15;18.58;;;;;;;7.13;100.00;100753.13;5044679;28;20167;-70
2023/02/19 06:37:14;;;;;;;28.95;18.52;;;;;;;7.27;100.00;100754.75;5033858;28;20028;-72
2023/02/19 06:39:40;;;;;;;29.67;19.17;;;;;;;7.26;100.00;100745.31;5051864;28;20033;-70
2023/02/19 06:42:05;;;;;;;27.30;18.52;;;;;;;7.33;100.00;100745.59;5051944;28;20399;-70
2023/02/19 06:44:30;;;;;;;26.77;18.98;;;;;;;7.41;100.00;100754.63;5051373;28;20092;-70
2023/02/19 06:46:56;;;;;;;26.50;18.92;;;;;;;7.37;100.00;100734.72;5051220;28;20043;-73
2023/02/19 06:49:21;;;;;;;29.80;19.63;;;;;;;7.39;100.00;100739.13;5051572;28;20021;-70
2023/02/19 06:51:47;;;;;;;30.88;21.60;;;;;;;7.41;100.00;100754.63;5051454;28;20462;-70
2023/02/19 06:54:12;;;;;;;31.52;21.85;;;;;;;7.48;100.00;100760.97;5051340;28;20098;-71
2023/02/19 06:56:39;;;;;;;26.58;18.70;;;;;;;7.64;100.00;100772.97;5051493;28;20572;-70
2023/02/19 06:59:18;;;;;;;30.27;22.10;;;;;;;7.75;100.00;100776.97;5051319;28;20032;-70
2023/02/19 07:01:44;;;;;;;30.65;21.60;;;;;;;7.76;100.00;100774.53;5033173;28;20036;-71
2023/02/19 07:04:10;;;;;;;32.78;19.63;;;;;;;7.89;100.00;100773.47;5051538;28;20103;-68
2023/02/19 07:06:36;;;;;;;29.58;20.92;;;;;;;7.93;100.00;100759.09;5051400;28;20136;-70
2023/02/19 07:09:04;;;;;;;31.15;21.80;;;;;;;7.99;100.00;100735.38;5051143;28;20029;-71
2023/02/19 07:11:32;;;;;;;27.73;19.70;;;;;;;8.33;100.00;100774.00;5051605;28;20025;-72
2023/02/19 07:13:59;;;;;;;24.30;18.33;;;;;;;8.46;100.00;100769.47;5051049;28;20043;-70
2023/02/19 07:16:26;;;;;;;24.92;16.73;;;;;;;8.53;100.00;100751.88;5051390;28;20608;-70
2023/02/19 07:18:52;;;;;;;21.65;15.57;;;;;;;8.70;100.00;100759.56;5050904;28;20028;-72
2023/02/19 07:21:18;;;;;;;17.77;12.60;;;;;;;8.92;95.68;100753.75;5051422;28;20020;-71
2023/02/19 07:23:44;;;;;;;19.25;12.65;;;;;;;9.16;92.25;100764.34;5051248;28;20402;-69
2023/02/19 07:26:12;;;;;;;19.73;10.70;;;;;;;9.06;88.70;100713.22;5050852;28;20025;-70
2023/02/19 07:28:39;;;;;;;16.45;10.23;;;;;;;9.48;84.63;100770.13;5045798;28;20109;-71
2023/02/19 07:31:05;;;;;;;17.80;10.85;;;;;;;9.59;83.09;100772.31;5050260;28;20039;-68
2023/02/19 07:33:30;;;;;;;14.73;10.10;;;;;;;9.77;81.46;100783.47;4999155;28;20049;-68
2023/02/19 07:35:56;;;;;;;15.20;9.60;;;;;;;9.86;79.48;100775.25;5050995;28;20053;-70
2023/02/19 07:38:23;;;;;;;18.45;9.68;;;;;;;9.97;79.39;100778.28;5051186;28;20517;-68
2023/02/19 07:41:00;;;;;;;13.90;9.27;;;;;;;9.90;76.62;100759.09;5050933;28;20017;-71
2023/02/19 07:43:27;;;;;;;15.80;9.45;;;;;;;10.28;76.00;100792.53;5050706;28;20119;-71
2023/02/19 07:45:53;;;;;;;15.23;9.52;;;;;;;10.18;75.82;100743.13;5050877;28;20032;-69
2023/02/19 07:48:18;;;;;;;13.43;8.63;;;;;;;10.68;74.38;100794.28;5031603;28;20033;-68
2023/02/19 07:50:58;;;;;;;15.02;8.85;;;;;;;10.81;73.28;100783.63;5049854;28;20025;-70
2023/02/19 07:53:25;;;;;;;12.13;8.18;;;;;;;11.10;71.99;100795.97;5047555;28;20063;-69
2023/02/19 07:55:51;;;;;;;13.93;8.45;;;;;;;11.30;71.53;100799.34;5050231;28;20028;-69
2023/02/19 07:58:16;;;;;;;13.48;8.98;;;;;;;11.47;69.23;100775.00;5044270;28;20505;-71
2023/02/19 08:00:42;;;;;;;12.85;8.40;;;;;;;11.84;68.41;100782.38;5049846;28;20036;-72
2023/02/19 08:03:08;;;;;;;12.68;7.68;;;;;;;11.99;64.59;100770.06;5049023;28;20049;-69
2023/02/19 08:05:36;;;;;;;10.52;6.10;;;;;;;12.29;64.47;100784.91;5049783;28;20041;-68
2023/02/19 08:08:05;;;;;;;15.48;4.95;;;;;;;12.84;60.11;100772.06;5047450;28;20033;-72
2023/02/19 08:13:18;;;;;;;11.55;4.63;;;;;;;13.37;56.90;100752.16;5050708;28;20090;-70
2023/02/19 08:15:49;;;;;;;18.45;5.80;;;;;;;13.54;56.62;100738.81;5051112;28;20068;-72
2023/02/19 08:18:16;;;;;;;13.88;5.18;;;;;;;13.73;55.19;100730.72;5051375;28;20032;-71
2023/02/19 08:20:42;;;;;;;11.35;4.80;;;;;;;13.90;55.38;100719.94;5033047;28;20032;-71
2023/02/19 08:23:08;;;;;;;8.38;4.45;;;;;;;14.08;55.13;100725.63;5051116;28;20035;-68
2023/02/19 08:25:34;;;;;;;9.85;4.57;;;;;;;14.24;54.35;100724.31;5051011;28;20157;-69
2023/02/19 08:28:00;;;;;;;7.20;4.32;;;;;;;14.48;54.09;100730.06;5051141;28;20530;-69
2023/02/19 08:30:27;;;;;;;8.68;3.70;;;;;;;14.55;52.96;100724.19;5051040;28;20041;-73
2023/02/19 08:32:53;;;;;;;9.77;4.57;;;;;;;14.60;52.46;100732.97;5051012;28;20476;-72
2023/02/19 08:35:18;;;;;;;8.50;4.63;;;;;;;14.84;53.56;100717.16;5050315;28;20060;-73
2023/02/19 08:37:44;;;;;;;10.40;4.80;;;;;;;15.01;53.16;100707.13;5051128;28;20135;-73
2023/02/19 08:40:10;;;;;;;11.25;4.50;;;;;;;15.06;51.84;100729.75;5050505;28;20039;-75
2023/02/19 08:42:37;;;;;;;10.40;4.07;;;;;;;14.90;51.14;100712.94;5050908;28;20032;-73
2023/02/19 08:45:04;;;;;;;8.48;3.75;;;;;;;14.72;51.75;100680.47;5050879;28;20031;-69
2023/02/19 08:47:29;;;;;;;9.70;4.18;;;;;;;15.11;52.24;100707.34;5050748;28;20048;-70
2023/02/19 08:49:55;;;;;;;16.80;4.45;;;;;;;14.90;51.52;100674.81;5050375;28;20463;-71
2023/02/19 08:52:20;;;;;;;7.38;4.32;;;;;;;15.15;50.84;100732.56;5050561;28;20099;-72
2023/02/19 08:54:46;;;;;;;9.82;4.18;;;;;;;15.18;51.45;100715.31;5049632;28;20041;-68
2023/02/19 08:57:11;;;;;;;10.02;4.28;;;;;;;15.32;51.26;100704.31;5050643;28;20029;-68
2023/02/19 08:59:36;;;;;;;11.52;4.80;;;;;;;15.41;51.32;100686.28;5050969;28;20438;-73
2023/02/19 09:02:02;;;;;;;9.27;4.72;;;;;;;15.66;50.49;100699.81;5050824;28;20463;-71
2023/02/19 09:04:27;;;;;;;9.93;4.57;;;;;;;15.72;50.76;100701.66;4998645;28;20049;-71
2023/02/19 09:06:53;;;;;;;7.25;4.07;;;;;;;15.79;49.89;100717.44;5050454;28;20032;-68
2023/02/19 09:09:18;;;;;;;6.88;4.15;;;;;;;15.94;50.78;100698.66;5050111;28;20075;-71
2023/02/19 09:11:44;;;;;;;8.20;4.75;;;;;;;16.04;50.42;100701.41;5050144;28;20094;-71
2023/02/19 09:14:09;;;;;;;7.32;4.22;;;;;;;15.77;48.97;100653.16;5050402;28;20048;-71
2023/02/19 09:16:35;;;;;;;10.48;4.55;;;;;;;16.06;48.90;100691.91;5050598;28;20040;-68
2023/02/19 09:19:02;;;;;;;11.27;5.25;;;;;;;16.20;49.27;100687.81;5050209;28;20147;-70
2023/02/19 09:21:28;;;;;;;13.13;4.43;;;;;;;16.34;48.03;100686.31;5050390;28;20173;-71
2023/02/19 09:23:53;;;;;;;8.73;4.28;;;;;;;16.45;47.71;100688.25;5050427;28;20032;-70
2023/02/19 09:26:19;;;;;;;10.73;5.38;;;;;;;16.68;48.33;100674.69;5050329;28;20053;-71
2023/02/19 09:28:45;;;;;;;6.70;4.70;;;;;;;16.89;47.65;100672.38;5050232;28;20029;-67
2023/02/19 09:31:15;;;;;;;9.13;4.60;;;;;;;17.03;47.06;100690.00;5050570;28;20025;-70
2023/02/19 09:33:47;;;;;;;;;;;;;;;17.10;46.12;100668.38;5023125;28;20491;-69
2023/02/19 09:36:14;;;;;;;6.47;3.58;;;;;;;17.09;44.98;100669.22;5051922;28;19999;-70
2023/02/19 09:38:40;;;;;;;13.82;5.65;;;;;;;17.26;44.96;100665.09;5049580;28;20049;-70
2023/02/19 09:41:12;;;;;;;16.45;4.25;;;;;;;17.06;44.05;100628.31;5049464;28;20025;-70
2023/02/19 09:43:38;;;;;;;7.57;3.97;;;;;;;17.60;43.95;100659.41;5037236;28;20025;-70
2023/02/19 09:46:16;;;;;;;11.25;4.32;;;;;;;17.74;45.16;100654.31;5048844;28;20040;-70
2023/02/19 09:48:41;;;;;;;6.70;3.58;;;;;;;17.66;44.22;100649.03;5039818;28;20028;-69
2023/02/19 09:51:09;;;;;;;8.30;4.03;;;;;;;17.51;44.52;100623.63;5037031;28;20492;-70
2023/02/19 09:53:43;;;;;;;7.88;3.42;;;;;;;17.66;43.31;100633.38;5048888;28;20116;-71
2023/02/19 09:56:08;;;;;;;9.23;3.95;;;;;;;17.93;43.24;100655.38;5048274;28;20480;-71
2023/02/19 09:58:55;;;;;;;11.48;4.32;;;;;;;18.08;43.14;100646.84;5048661;28;20111;-68
2023/02/19 10:01:25;;;;;;;6.32;3.50;;;;;;;18.07;43.32;100639.88;5048359;28;20558;-68
2023/02/19 10:03:51;;;;;;;6.85;3.15;;;;;;;18.09;42.93;100640.75;5048668;28;20025;-72
2023/02/19 10:06:22;;;;;;;9.68;4.20;;;;;;;18.14;43.16;100652.13;5048721;28;20033;-70
2023/02/19 10:08:55;;;;;;;4.30;2.95;;;;;;;18.27;42.05;100638.31;5052432;28;20025;-71
2023/02/19 10:11:22;;;;;;;10.25;4.45;;;;;;;18.32;42.06;100595.63;5052402;28;20064;-71
2023/02/19 10:14:08;;;;;;;6.95;3.67;;;;;;;18.62;41.40;100600.22;5052374;28;20083;-71
2023/02/19 10:16:39;;;;;;;8.77;4.07;;;;;;;18.78;41.25;100608.13;4984557;28;20462;-71
2023/02/19 10:19:07;;;;;;;5.25;3.13;;;;;;;18.84;41.32;100603.81;5052454;28;20033;-68
2023/02/19 10:21:33;;;;;;;6.68;3.83;;;;;;;18.93;40.86;100608.25;5052166;28;20029;-70
2023/02/19 10:24:01;;;;;;;3.60;2.20;;;;;;;18.89;40.77;100602.09;5052244;28;20029;-69
2023/02/19 10:26:27;;;;;;;8.95;2.67;;;;;;;18.94;40.35;100593.41;5045515;28;20044;-70
2023/02/19 10:28:54;;;;;;;7.22;2.70;;;;;;;18.94;40.22;100590.81;5051791;28;20025;-69
2023/02/19 10:31:24;;;;;;;7.65;3.15;;;;;;;18.96;40.44;100586.47;5051675;28;20502;-70
2023/02/19 10:34:02;;;;;;;7.13;4.07;;;;;;;19.08;40.92;100568.19;5051693;28;20077;-68
2023/02/19 10:36:35;;;;;;;5.47;3.03;;;;;;;19.39;39.64;100574.38;5052098;28;20032;-70
2023/02/19 10:39:07;;;;;;;5.72;2.85;;;;;;;19.30;39.63;100566.53;5051903;28;20032;-71
2023/02/19 10:41:33;;;;;;;4.97;2.83;;;;;;;18.97;39.41;100546.34;5050625;28;20380;-74
2023/02/19 10:44:28;;;;;;;4.30;2.72;;;;;;;19.18;39.37;100551.66;5051998;28;20112;-70
2023/02/19 10:46:58;;;;;;;6.53;2.83;;;;;;;19.24;39.78;100556.03;5045901;28;20028;-71
2023/02/19 10:49:30;;;;;;;6.90;3.03;;;;;;;19.25;38.71;100547.28;4999886;28;20037;-70
2023/02/19 10:52:30;;;;;;;6.43;3.38;;;;;;;19.19;39.05;100511.53;5051568;28;20025;-70
2023/02/19 10:55:12;;;;;;;5.40;3.58;;;;;;;19.32;40.13;100538.59;4970164;28;20102;-70
2023/02/19 10:57:37;;;;;;;5.05;2.72;;;;;;;19.43;39.81;100536.00;4970348;28;20628;-70
2023/02/19 11:00:29;;;;;;;5.07;2.67;;;;;;;19.45;39.63;100531.66;4970488;28;20054;-68
2023/02/19 11:03:13;;;;;;;6.72;2.50;;;;;;;19.05;39.50;100472.25;4932081;29;20032;-68
2023/02/19 11:05:55;;;;;;;6.15;2.72;;;;;;;19.63;39.96;100517.69;4931799;29;20075;-70
2023/02/19 11:08:22;;;;;;;5.30;2.83;;;;;;;19.66;39.16;100527.28;4931306;29;20106;-69
2023/02/19 11:10:48;;;;;;;3.20;2.25;;;;;;;19.61;38.61;100508.06;4931942;29;20663;-68
2023/02/19 11:13:22;;;;;;;4.80;2.80;;;;;;;19.87;39.00;100514.19;4931527;29;20112;-69
2023/02/19 11:16:08;;;;;;;4.75;2.95;;;;;;;19.74;39.31;100512.44;4912398;29;20071;-69
2023/02/19 11:18:38;;;;;;;5.50;3.03;;;;;;;19.78;39.26;100526.44;4912131;29;20806;-68
2023/02/19 11:21:06;;;;;;;7.72;3.33;;;;;;;19.56;39.95;100514.19;4912808;29;20044;-69
2023/02/19 11:23:35;;;;;;;7.40;3.10;;;;;;;19.85;39.37;100518.59;4912926;29;20086;-70
2023/02/19 11:26:15;;;;;;;6.35;2.90;;;;;;;19.78;39.87;100508.09;4912640;29;20028;-69
2023/02/19 11:28:42;;;;;;;4.05;2.75;;;;;;;19.91;39.33;100516.84;4911796;29;20040;-72
2023/02/19 11:31:19;;;;;;;5.50;2.70;;;;;;;19.96;38.34;100517.69;4926765;29;20044;-67
2023/02/19 11:34:01;;;;;;;5.60;2.60;;;;;;;19.80;38.71;100494.13;4928956;29;20043;-67
2023/02/19 11:36:26;;;;;;;7.50;2.33;;;;;;;19.90;38.96;100497.63;4929365;29;20031;-69
2023/02/19 11:38:53;;;;;;;6.53;1.90;;;;;;;19.92;38.50;100495.88;4934887;28;20114;-71
2023/02/19 11:41:55;;;;;;;2.67;2.00;;;;;;;20.11;37.95;100490.59;4989176;28;20045;-69
2023/02/19 11:44:32;;;;;;;7.03;3.10;;;;;;;20.01;37.81;100493.25;4986363;28;20050;-67
2023/02/19 11:47:29;;;;;;;6.00;2.45;;;;;;;19.85;38.79;100479.28;4988708;28;20614;-72
2023/02/19 11:50:16;;;;;;;8.32;4.25;;;;;;;20.13;38.25;100475.75;4988370;28;20057;-68
2023/02/19 11:53:06;;;;;;;4.95;2.40;;;;;;;20.22;38.01;100475.72;4994329;28;20026;-68
2023/02/19 11:55:53;;;;;;;5.53;2.45;;;;;;;20.17;38.54;100474.84;5041456;28;20078;-71
2023/02/19 11:58:44;;;;;;;4.82;2.67;;;;;;;20.10;39.10;100476.63;5041380;28;20017;-70